sensor_id;sensor_type;location;lat;lon;timestamp;P1;durP1;ratioP1;P2;durP2;ratioP2
67344;SDS011;54230;52.402;6.276;2023-04-28T00:00:00;15.4;;;8.2;;
67344;SDS011;54230;52.402;6.276;2023-04-28T00:05:00;16.7;;;8.2;;
67344;SDS011;54230;52.402;6.276;2023-04-28T00:10:00;17.4;;;8.5;;
67344;SDS011;54230;52.402;6.276;2023-04-28T00:15:00;14.5;;;8.3;;
67344;SDS011;54230;52.402;6.276;2023-04-28T00:20:00;14.4;;;8.2;;
67344;SDS011;54230;52.402;6.276;2023-04-28T00:25:00;15.5;;;8.6;;
67344;SDS011;54230;52.402;6.276;2023-04-28T00:30:00;15.4;;;8.7;;
67344;SDS011;54230;52.402;6.276;2023-04-28T00:35:00;14.4;;;8.7;;
67344;SDS011;54230;52.402;6.276;2023-04-28T00:40:00;13.8;;;8.2;;
67344;SDS011;54230;52.402;6.276;2023-04-28T00:45:00;14.3;;;7.9;;
67344;SDS011;54230;52.402;6.276;2023-04-28T00:50:00;15.0;;;8.5;;
67344;SDS011;54230;52.402;6.276;2023-04-28T00:55:00;15.3;;;8.8;;
67344;SDS011;54230;52.402;6.276;2023-04-28T01:00:00;15.9;;;8.4;;
67344;SDS011;54230;52.402;6.276;2023-04-28T01:05:00;16.7;;;8.8;;
67344;SDS011;54230;52.402;6.276;2023-04-28T01:10:00;17.2;;;8.1;;
67344;SDS011;54230;52.402;6.276;2023-04-28T01:15:00;15.7;;;8.5;;
67344;SDS011;54230;52.402;6.276;2023-04-28T01:20:00;17.3;;;8.2;;
67344;SDS011;54230;52.402;6.276;2023-04-28T01:25:00;14.8;;;8.9;;
67344;SDS011;54230;52.402;6.276;2023-04-28T01:30:00;15.7;;;8.4;;
67344;SDS011;54230;52.402;6.276;2023-04-28T01:35:00;16.4;;;9.0;;
67344;SDS011;54230;52.402;6.276;2023-04-28T01:40:00;14.9;;;8.3;;
67344;SDS011;54230;52.402;6.276;2023-04-28T01:45:00;16.6;;;8.8;;
67344;SDS011;54230;52.402;6.276;2023-04-28T01:50:00;17.6;;;9.3;;
67344;SDS011;54230;52.402;6.276;2023-04-28T01:55:00;16.3;;;8.2;;
67344;SDS011;54230;52.402;6.276;2023-04-28T02:00:00;15.6;;;8.6;;
67344;SDS011;54230;52.402;6.276;2023-04-28T02:05:00;16.9;;;8.9;;
67344;SDS011;54230;52.402;6.276;2023-04-28T02:10:00;15.6;;;8.8;;
67344;SDS011;54230;52.402;6.276;2023-04-28T02:15:00;16.1;;;8.6;;
67344;SDS011;54230;52.402;6.276;2023-04-28T02:20:00;16.3;;;8.8;;
67344;SDS011;54230;52.402;6.276;2023-04-28T02:25:00;17.7;;;9.4;;
67344;SDS011;54230;52.402;6.276;2023-04-28T02:30:00;16.2;;;9.1;;
67344;SDS011;54230;52.402;6.276;2023-04-28T02:35:00;16.9;;;9.2;;
67344;SDS011;54230;52.402;6.276;2023-04-28T02:40:00;17.0;;;9.1;;
67344;SDS011;54230;52.402;6.276;2023-04-28T02:45:00;15.7;;;8.8;;
67344;SDS011;54230;52.402;6.276;2023-04-28T02:50:00;14.9;;;9.0;;
67344;SDS011;54230;52.402;6.276;2023-04-28T02:55:00;14.7;;;8.1;;
67344;SDS011;54230;52.402;6.276;2023-04-28T03:00:00;14.3;;;8.2;;
67344;SDS011;54230;52.402;6.276;2023-04-28T03:05:00;14.9;;;8.4;;
67344;SDS011;54230;52.402;6.276;2023-04-28T03:10:00;14.8;;;8.6;;
67344;SDS011;54230;52.402;6.276;2023-04-28T03:15:00;14.6;;;8.3;;
67344;SDS011;54230;52.402;6.276;2023-04-28T03:20:00;15.6;;;8.2;;
67344;SDS011;54230;52.402;6.276;2023-04-28T03:25:00;15.5;;;8.0;;
67344;SDS011;54230;52.402;6.276;2023-04-28T03:30:00;16.4;;;8.0;;
67344;SDS011;54230;52.402;6.276;2023-04-28T03:35:00;15.6;;;8.0;;
67344;SDS011;54230;52.402;6.276;2023-04-28T03:40:00;12.5;;;7.3;;
67344;SDS011;54230;52.402;6.276;2023-04-28T03:45:00;15.8;;;7.9;;
67344;SDS011;54230;52.402;6.276;2023-04-28T03:50:00;13.0;;;7.9;;
67344;SDS011;54230;52.402;6.276;2023-04-28T03:55:00;14.1;;;7.9;;
67344;SDS011;54230;52.402;6.276;2023-04-28T04:00:00;16.5;;;8.0;;
67344;SDS011;54230;52.402;6.276;2023-04-28T04:05:00;12.6;;;7.8;;
67344;SDS011;54230;52.402;6.276;2023-04-28T04:10:00;15.2;;;8.3;;
67344;SDS011;54230;52.402;6.276;2023-04-28T04:15:00;14.6;;;8.4;;
67344;SDS011;54230;52.402;6.276;2023-04-28T04:20:00;14.5;;;8.3;;
67344;SDS011;54230;52.402;6.276;2023-04-28T04:25:00;16.3;;;7.6;;
67344;SDS011;54230;52.402;6.276;2023-04-28T04:30:00;14.7;;;7.9;;
67344;SDS011;54230;52.402;6.276;2023-04-28T04:35:00;13.0;;;7.3;;
67344;SDS011;54230;52.402;6.276;2023-04-28T04:40:00;12.4;;;7.1;;
67344;SDS011;54230;52.402;6.276;2023-04-28T04:45:00;12.6;;;6.9;;
67344;SDS011;54230;52.402;6.276;2023-04-28T04:50:00;12.7;;;7.1;;
67344;SDS011;54230;52.402;6.276;2023-04-28T04:55:00;12.1;;;6.9;;
67344;SDS011;54230;52.402;6.276;2023-04-28T05:00:00;13.2;;;7.0;;
67344;SDS011;54230;52.402;6.276;2023-04-28T05:05:00;12.6;;;6.7;;
67344;SDS011;54230;52.402;6.276;2023-04-28T05:10:00;11.4;;;7.1;;
67344;SDS011;54230;52.402;6.276;2023-04-28T05:15:00;11.7;;;6.4;;
67344;SDS011;54230;52.402;6.276;2023-04-28T05:20:00;11.2;;;6.8;;
67344;SDS011;54230;52.402;6.276;2023-04-28T05:25:00;10.9;;;6.5;;
67344;SDS011;54230;52.402;6.276;2023-04-28T05:30:00;13.2;;;6.7;;
67344;SDS011;54230;52.402;6.276;2023-04-28T05:35:00;12.6;;;6.5;;
67344;SDS011;54230;52.402;6.276;2023-04-28T05:40:00;12.4;;;6.3;;
67344;SDS011;54230;52.402;6.276;2023-04-28T05:45:00;12.1;;;6.4;;
67344;SDS011;54230;52.402;6.276;2023-04-28T05:50:00;11.7;;;6.8;;
67344;SDS011;54230;52.402;6.276;2023-04-28T05:55:00;10.4;;;6.1;;
67344;SDS011;54230;52.402;6.276;2023-04-28T06:00:00;10.6;;;6.7;;
67344;SDS011;54230;52.402;6.276;2023-04-28T06:05:00;11.5;;;6.7;;
67344;SDS011;54230;52.402;6.276;2023-04-28T06:10:00;12.6;;;6.8;;
67344;SDS011;54230;52.402;6.276;2023-04-28T06:15:00;11.5;;;6.5;;
67344;SDS011;54230;52.402;6.276;2023-04-28T06:20:00;12.6;;;6.9;;
67344;SDS011;54230;52.402;6.276;2023-04-28T06:25:00;10.9;;;6.2;;
67344;SDS011;54230;52.402;6.276;2023-04-28T06:30:00;11.6;;;6.5;;
67344;SDS011;54230;52.402;6.276;2023-04-28T06:35:00;11.1;;;6.6;;
67344;SDS011;54230;52.402;6.276;2023-04-28T06:40:00;14.0;;;6.9;;
67344;SDS011;54230;52.402;6.276;2023-04-28T06:45:00;14.2;;;7.2;;
67344;SDS011;54230;52.402;6.276;2023-04-28T06:50:00;11.0;;;6.5;;
67344;SDS011;54230;52.402;6.276;2023-04-28T06:55:00;11.8;;;7.1;;
67344;SDS011;54230;52.402;6.276;2023-04-28T07:00:00;12.8;;;6.9;;
67344;SDS011;54230;52.402;6.276;2023-04-28T07:05:00;43.5;;;12.0;;
67344;SDS011;54230;52.402;6.276;2023-04-28T07:10:00;21.5;;;9.1;;
67344;SDS011;54230;52.402;6.276;2023-04-28T07:15:00;27.7;;;9.2;;
67344;SDS011;54230;52.402;6.276;2023-04-28T07:20:00;18.2;;;8.8;;
67344;SDS011;54230;52.402;6.276;2023-04-28T07:25:00;21.3;;;8.7;;
67344;SDS011;54230;52.402;6.276;2023-04-28T07:30:00;15.3;;;8.7;;
67344;SDS011;54230;52.402;6.276;2023-04-28T07:35:00;14.9;;;8.7;;
67344;SDS011;54230;52.402;6.276;2023-04-28T07:40:00;15.2;;;9.4;;
67344;SDS011;54230;52.402;6.276;2023-04-28T07:45:00;14.4;;;8.6;;
67344;SDS011;54230;52.402;6.276;2023-04-28T07:50:00;13.2;;;8.3;;
67344;SDS011;54230;52.402;6.276;2023-04-28T07:55:00;14.7;;;8.8;;
67344;SDS011;54230;52.402;6.276;2023-04-28T08:00:00;16.4;;;8.7;;
67344;SDS011;54230;52.402;6.276;2023-04-28T08:05:00;14.3;;;8.8;;
67344;SDS011;54230;52.402;6.276;2023-04-28T08:10:00;13.8;;;8.6;;
67344;SDS011;54230;52.402;6.276;2023-04-28T08:15:00;16.6;;;9.4;;
67344;SDS011;54230;52.402;6.276;2023-04-28T08:20:00;16.7;;;9.7;;
67344;SDS011;54230;52.402;6.276;2023-04-28T08:25:00;17.3;;;9.7;;
67344;SDS011;54230;52.402;6.276;2023-04-28T08:30:00;14.8;;;10.1;;
67344;SDS011;54230;52.402;6.276;2023-04-28T08:35:00;16.2;;;9.8;;
67344;SDS011;54230;52.402;6.276;2023-04-28T08:40:00;16.5;;;9.7;;
67344;SDS011;54230;52.402;6.276;2023-04-28T08:45:00;15.4;;;9.9;;
67344;SDS011;54230;52.402;6.276;2023-04-28T08:50:01;14.8;;;10.0;;
67344;SDS011;54230;52.402;6.276;2023-04-28T08:55:00;16.1;;;9.8;;
67344;SDS011;54230;52.402;6.276;2023-04-28T09:00:00;14.5;;;9.3;;
67344;SDS011;54230;52.402;6.276;2023-04-28T09:05:00;14.8;;;9.0;;
67344;SDS011;54230;52.402;6.276;2023-04-28T09:15:00;14.1;;;8.9;;
67344;SDS011;54230;52.402;6.276;2023-04-28T09:20:00;13.0;;;9.0;;
67344;SDS011;54230;52.402;6.276;2023-04-28T09:25:09;13.8;;;9.5;;
67344;SDS011;54230;52.402;6.276;2023-04-28T09:30:00;14.4;;;8.4;;
67344;SDS011;54230;52.402;6.276;2023-04-28T09:35:00;58.1;;;16.7;;
67344;SDS011;54230;52.402;6.276;2023-04-28T09:40:04;14.8;;;9.9;;
67344;SDS011;54230;52.402;6.276;2023-04-28T09:45:00;15.3;;;10.0;;
67344;SDS011;54230;52.402;6.276;2023-04-28T09:50:00;15.0;;;9.7;;
67344;SDS011;54230;52.402;6.276;2023-04-28T09:55:00;25.4;;;11.6;;
67344;SDS011;54230;52.402;6.276;2023-04-28T10:00:01;17.2;;;10.8;;
67344;SDS011;54230;52.402;6.276;2023-04-28T10:05:00;17.1;;;12.0;;
67344;SDS011;54230;52.402;6.276;2023-04-28T10:10:00;18.6;;;12.7;;
67344;SDS011;54230;52.402;6.276;2023-04-28T10:15:00;18.9;;;11.6;;
67344;SDS011;54230;52.402;6.276;2023-04-28T10:20:00;19.5;;;12.0;;
67344;SDS011;54230;52.402;6.276;2023-04-28T10:25:06;18.2;;;11.0;;
67344;SDS011;54230;52.402;6.276;2023-04-28T10:45:00;18.6;;;12.6;;
67344;SDS011;54230;52.402;6.276;2023-04-28T10:50:05;20.0;;;13.7;;
67344;SDS011;54230;52.402;6.276;2023-04-28T11:10:00;25.8;;;17.7;;
67344;SDS011;54230;52.402;6.276;2023-04-28T11:15:10;23.8;;;17.1;;
67344;SDS011;54230;52.402;6.276;2023-04-28T11:20:00;24.5;;;16.6;;
67344;SDS011;54230;52.402;6.276;2023-04-28T11:25:00;22.7;;;17.4;;
67344;SDS011;54230;52.402;6.276;2023-04-28T11:30:00;22.5;;;17.3;;
67344;SDS011;54230;52.402;6.276;2023-04-28T11:35:00;25.0;;;17.3;;
67344;SDS011;54230;52.402;6.276;2023-04-28T11:40:08;24.5;;;17.8;;
67344;SDS011;54230;52.402;6.276;2023-04-28T11:45:00;24.6;;;18.7;;
67344;SDS011;54230;52.402;6.276;2023-04-28T11:50:00;23.4;;;18.1;;
67344;SDS011;54230;52.402;6.276;2023-04-28T11:55:00;25.0;;;17.6;;
67344;SDS011;54230;52.402;6.276;2023-04-28T12:05:04;29.8;;;20.3;;
67344;SDS011;54230;52.402;6.276;2023-04-28T12:15:01;31.9;;;21.7;;
67344;SDS011;54230;52.402;6.276;2023-04-28T12:20:01;28.3;;;19.7;;
67344;SDS011;54230;52.402;6.276;2023-04-28T12:25:02;27.0;;;19.1;;
67344;SDS011;54230;52.402;6.276;2023-04-28T12:30:00;29.4;;;20.0;;
67344;SDS011;54230;52.402;6.276;2023-04-28T12:35:00;28.8;;;21.2;;
67344;SDS011;54230;52.402;6.276;2023-04-28T12:40:00;27.2;;;20.4;;
67344;SDS011;54230;52.402;6.276;2023-04-28T12:45:00;25.8;;;18.3;;
67344;SDS011;54230;52.402;6.276;2023-04-28T12:50:00;30.0;;;19.6;;
67344;SDS011;54230;52.402;6.276;2023-04-28T12:55:00;25.2;;;18.1;;
67344;SDS011;54230;52.402;6.276;2023-04-28T13:00:00;21.5;;;16.4;;
67344;SDS011;54230;52.402;6.276;2023-04-28T13:05:00;24.9;;;17.7;;
67344;SDS011;54230;52.402;6.276;2023-04-28T13:10:00;20.9;;;16.0;;
67344;SDS011;54230;52.402;6.276;2023-04-28T13:15:00;18.1;;;14.1;;
67344;SDS011;54230;52.402;6.276;2023-04-28T13:20:00;14.4;;;11.1;;
67344;SDS011;54230;52.402;6.276;2023-04-28T13:25:00;14.9;;;11.6;;
67344;SDS011;54230;52.402;6.276;2023-04-28T13:30:00;15.2;;;11.8;;
67344;SDS011;54230;52.402;6.276;2023-04-28T13:35:00;16.4;;;12.9;;
67344;SDS011;54230;52.402;6.276;2023-04-28T13:40:00;17.5;;;12.5;;
67344;SDS011;54230;52.402;6.276;2023-04-28T13:45:00;16.2;;;12.3;;
67344;SDS011;54230;52.402;6.276;2023-04-28T13:50:00;17.3;;;12.3;;
67344;SDS011;54230;52.402;6.276;2023-04-28T13:55:00;13.6;;;9.7;;
67344;SDS011;54230;52.402;6.276;2023-04-28T14:00:00;15.4;;;10.0;;
67344;SDS011;54230;52.402;6.276;2023-04-28T14:05:00;14.1;;;8.2;;
67344;SDS011;54230;52.402;6.276;2023-04-28T14:10:00;11.5;;;7.5;;
67344;SDS011;54230;52.402;6.276;2023-04-28T14:15:00;11.3;;;7.2;;
67344;SDS011;54230;52.402;6.276;2023-04-28T14:20:01;9.3;;;5.8;;
67344;SDS011;54230;52.402;6.276;2023-04-28T14:25:00;10.5;;;5.8;;
67344;SDS011;54230;52.402;6.276;2023-04-28T14:30:00;10.6;;;5.7;;
67344;SDS011;54230;52.402;6.276;2023-04-28T14:35:00;10.2;;;5.9;;
67344;SDS011;54230;52.402;6.276;2023-04-28T14:40:00;12.0;;;6.6;;
67344;SDS011;54230;52.402;6.276;2023-04-28T14:45:00;11.1;;;6.8;;
67344;SDS011;54230;52.402;6.276;2023-04-28T14:50:00;11.4;;;6.5;;
67344;SDS011;54230;52.402;6.276;2023-04-28T14:55:00;9.7;;;5.6;;
67344;SDS011;54230;52.402;6.276;2023-04-28T15:00:00;9.1;;;6.2;;
67344;SDS011;54230;52.402;6.276;2023-04-28T15:05:00;9.7;;;6.7;;
67344;SDS011;54230;52.402;6.276;2023-04-28T15:10:00;9.7;;;6.5;;
67344;SDS011;54230;52.402;6.276;2023-04-28T15:15:00;10.7;;;5.7;;
67344;SDS011;54230;52.402;6.276;2023-04-28T15:20:00;9.1;;;5.8;;
67344;SDS011;54230;52.402;6.276;2023-04-28T15:25:00;10.9;;;5.8;;
67344;SDS011;54230;52.402;6.276;2023-04-28T15:30:00;6.7;;;4.6;;
67344;SDS011;54230;52.402;6.276;2023-04-28T15:35:00;6.9;;;4.3;;
67344;SDS011;54230;52.402;6.276;2023-04-28T15:40:00;8.1;;;4.4;;
67344;SDS011;54230;52.402;6.276;2023-04-28T15:45:00;7.7;;;4.6;;
67344;SDS011;54230;52.402;6.276;2023-04-28T15:50:00;10.6;;;4.7;;
67344;SDS011;54230;52.402;6.276;2023-04-28T15:55:00;8.3;;;4.8;;
67344;SDS011;54230;52.402;6.276;2023-04-28T16:00:00;7.2;;;4.3;;
67344;SDS011;54230;52.402;6.276;2023-04-28T16:05:00;10.6;;;5.8;;
67344;SDS011;54230;52.402;6.276;2023-04-28T16:10:00;16.2;;;7.0;;
67344;SDS011;54230;52.402;6.276;2023-04-28T16:15:00;19.9;;;8.2;;
67344;SDS011;54230;52.402;6.276;2023-04-28T16:20:00;17.9;;;9.3;;
67344;SDS011;54230;52.402;6.276;2023-04-28T16:25:00;19.2;;;9.3;;
67344;SDS011;54230;52.402;6.276;2023-04-28T16:30:00;19.3;;;9.8;;
67344;SDS011;54230;52.402;6.276;2023-04-28T16:35:00;17.9;;;9.6;;
67344;SDS011;54230;52.402;6.276;2023-04-28T16:40:00;19.0;;;10.5;;
67344;SDS011;54230;52.402;6.276;2023-04-28T16:45:00;21.0;;;10.6;;
67344;SDS011;54230;52.402;6.276;2023-04-28T16:50:00;20.4;;;10.5;;
67344;SDS011;54230;52.402;6.276;2023-04-28T16:55:00;20.7;;;10.4;;
67344;SDS011;54230;52.402;6.276;2023-04-28T17:00:00;23.2;;;10.8;;
67344;SDS011;54230;52.402;6.276;2023-04-28T17:05:00;21.7;;;9.8;;
67344;SDS011;54230;52.402;6.276;2023-04-28T17:10:00;21.0;;;10.3;;
67344;SDS011;54230;52.402;6.276;2023-04-28T17:15:00;22.3;;;10.5;;
67344;SDS011;54230;52.402;6.276;2023-04-28T17:20:00;22.5;;;10.2;;
67344;SDS011;54230;52.402;6.276;2023-04-28T17:25:00;21.1;;;10.1;;
67344;SDS011;54230;52.402;6.276;2023-04-28T17:30:00;18.6;;;9.3;;
67344;SDS011;54230;52.402;6.276;2023-04-28T17:35:00;19.2;;;9.6;;
67344;SDS011;54230;52.402;6.276;2023-04-28T17:40:00;11.9;;;6.4;;
67344;SDS011;54230;52.402;6.276;2023-04-28T17:45:00;17.6;;;9.3;;
67344;SDS011;54230;52.402;6.276;2023-04-28T17:50:00;17.2;;;9.0;;
67344;SDS011;54230;52.402;6.276;2023-04-28T17:55:00;17.5;;;9.2;;
67344;SDS011;54230;52.402;6.276;2023-04-28T18:00:00;18.4;;;9.9;;
67344;SDS011;54230;52.402;6.276;2023-04-28T18:05:00;18.9;;;8.8;;
67344;SDS011;54230;52.402;6.276;2023-04-28T18:10:00;17.0;;;8.6;;
67344;SDS011;54230;52.402;6.276;2023-04-28T18:15:00;18.8;;;9.3;;
67344;SDS011;54230;52.402;6.276;2023-04-28T18:20:00;15.8;;;8.4;;
67344;SDS011;54230;52.402;6.276;2023-04-28T18:25:00;19.4;;;9.8;;
67344;SDS011;54230;52.402;6.276;2023-04-28T18:30:00;19.8;;;9.7;;
67344;SDS011;54230;52.402;6.276;2023-04-28T18:35:00;17.6;;;9.0;;
67344;SDS011;54230;52.402;6.276;2023-04-28T18:40:00;17.3;;;9.2;;
67344;SDS011;54230;52.402;6.276;2023-04-28T18:45:00;17.8;;;9.5;;
67344;SDS011;54230;52.402;6.276;2023-04-28T18:50:00;16.4;;;9.6;;
67344;SDS011;54230;52.402;6.276;2023-04-28T18:55:00;19.6;;;10.6;;
67344;SDS011;54230;52.402;6.276;2023-04-28T19:00:00;16.3;;;10.3;;
67344;SDS011;54230;52.402;6.276;2023-04-28T19:05:00;16.8;;;9.7;;
67344;SDS011;54230;52.402;6.276;2023-04-28T19:10:00;17.5;;;9.9;;
67344;SDS011;54230;52.402;6.276;2023-04-28T19:15:00;20.1;;;11.7;;
67344;SDS011;54230;52.402;6.276;2023-04-28T19:20:00;21.6;;;12.0;;
67344;SDS011;54230;52.402;6.276;2023-04-28T19:25:00;23.3;;;13.1;;
67344;SDS011;54230;52.402;6.276;2023-04-28T19:30:00;23.9;;;13.9;;
67344;SDS011;54230;52.402;6.276;2023-04-28T19:35:00;26.2;;;14.4;;
67344;SDS011;54230;52.402;6.276;2023-04-28T19:40:00;23.8;;;15.4;;
67344;SDS011;54230;52.402;6.276;2023-04-28T19:45:00;26.4;;;16.1;;
67344;SDS011;54230;52.402;6.276;2023-04-28T19:50:00;28.1;;;16.9;;
67344;SDS011;54230;52.402;6.276;2023-04-28T19:55:00;29.0;;;17.4;;
67344;SDS011;54230;52.402;6.276;2023-04-28T20:00:00;30.7;;;17.4;;
67344;SDS011;54230;52.402;6.276;2023-04-28T20:05:00;30.0;;;17.5;;
67344;SDS011;54230;52.402;6.276;2023-04-28T20:10:00;33.5;;;20.1;;
67344;SDS011;54230;52.402;6.276;2023-04-28T20:15:00;35.5;;;20.0;;
67344;SDS011;54230;52.402;6.276;2023-04-28T20:20:01;38.6;;;21.5;;
67344;SDS011;54230;52.402;6.276;2023-04-28T20:25:00;37.2;;;20.2;;
67344;SDS011;54230;52.402;6.276;2023-04-28T20:30:00;37.6;;;20.6;;
67344;SDS011;54230;52.402;6.276;2023-04-28T20:35:00;41.0;;;20.4;;
67344;SDS011;54230;52.402;6.276;2023-04-28T20:40:00;42.8;;;21.0;;
67344;SDS011;54230;52.402;6.276;2023-04-28T20:45:00;48.3;;;22.4;;
67344;SDS011;54230;52.402;6.276;2023-04-28T20:50:00;48.6;;;22.9;;
67344;SDS011;54230;52.402;6.276;2023-04-28T20:55:00;54.1;;;23.7;;
67344;SDS011;54230;52.402;6.276;2023-04-28T21:00:00;54.9;;;23.8;;
67344;SDS011;54230;52.402;6.276;2023-04-28T21:05:00;51.1;;;24.1;;
67344;SDS011;54230;52.402;6.276;2023-04-28T21:10:00;50.8;;;22.8;;
67344;SDS011;54230;52.402;6.276;2023-04-28T21:15:00;44.3;;;20.8;;
67344;SDS011;54230;52.402;6.276;2023-04-28T21:20:00;42.2;;;20.2;;
67344;SDS011;54230;52.402;6.276;2023-04-28T21:25:00;42.7;;;19.6;;
67344;SDS011;54230;52.402;6.276;2023-04-28T21:30:00;41.3;;;19.4;;
67344;SDS011;54230;52.402;6.276;2023-04-28T21:35:00;40.4;;;19.8;;
67344;SDS011;54230;52.402;6.276;2023-04-28T21:40:00;38.8;;;18.7;;
67344;SDS011;54230;52.402;6.276;2023-04-28T21:45:00;37.1;;;18.2;;
67344;SDS011;54230;52.402;6.276;2023-04-28T21:50:00;35.4;;;18.9;;
67344;SDS011;54230;52.402;6.276;2023-04-28T21:55:00;38.2;;;18.6;;
67344;SDS011;54230;52.402;6.276;2023-04-28T22:00:00;39.6;;;18.7;;
67344;SDS011;54230;52.402;6.276;2023-04-28T22:05:00;34.6;;;17.1;;
67344;SDS011;54230;52.402;6.276;2023-04-28T22:10:00;36.2;;;17.2;;
67344;SDS011;54230;52.402;6.276;2023-04-28T22:15:00;32.3;;;16.4;;
67344;SDS011;54230;52.402;6.276;2023-04-28T22:20:00;31.4;;;16.3;;
67344;SDS011;54230;52.402;6.276;2023-04-28T22:25:00;34.1;;;17.0;;
67344;SDS011;54230;52.402;6.276;2023-04-28T22:30:00;33.1;;;17.8;;
67344;SDS011;54230;52.402;6.276;2023-04-28T22:35:00;37.2;;;18.2;;
67344;SDS011;54230;52.402;6.276;2023-04-28T22:40:00;33.4;;;17.9;;
67344;SDS011;54230;52.402;6.276;2023-04-28T22:45:00;34.2;;;18.7;;
67344;SDS011;54230;52.402;6.276;2023-04-28T22:50:00;35.3;;;18.8;;
67344;SDS011;54230;52.402;6.276;2023-04-28T22:55:00;36.0;;;19.4;;
67344;SDS011;54230;52.402;6.276;2023-04-28T23:00:00;38.6;;;20.1;;
67344;SDS011;54230;52.402;6.276;2023-04-28T23:05:00;36.8;;;19.0;;
67344;SDS011;54230;52.402;6.276;2023-04-28T23:10:00;38.1;;;19.4;;
67344;SDS011;54230;52.402;6.276;2023-04-28T23:15:00;35.1;;;19.0;;
67344;SDS011;54230;52.402;6.276;2023-04-28T23:20:00;35.8;;;19.7;;
67344;SDS011;54230;52.402;6.276;2023-04-28T23:25:00;39.4;;;20.2;;
67344;SDS011;54230;52.402;6.276;2023-04-28T23:30:00;38.0;;;20.5;;
67344;SDS011;54230;52.402;6.276;2023-04-28T23:35:00;40.8;;;20.8;;
67344;SDS011;54230;52.402;6.276;2023-04-28T23:40:00;38.9;;;20.9;;
67344;SDS011;54230;52.402;6.276;2023-04-28T23:45:00;41.8;;;21.3;;
67344;SDS011;54230;52.402;6.276;2023-04-28T23:50:00;39.0;;;21.3;;
67344;SDS011;54230;52.402;6.276;2023-04-28T23:55:00;41.4;;;21.5;;
